createdAt,value
2022-11-12T00:00:41.869Z,11.35
2022-11-12T00:03:08.649Z,11.53
2022-11-12T00:05:35.438Z,11.63
2022-11-12T00:08:01.985Z,11.57
2022-11-12T00:10:28.754Z,11.29
2022-11-12T00:12:55.446Z,11.32
2022-11-12T00:15:22.008Z,11.39
2022-11-12T00:17:48.505Z,11.21
2022-11-12T00:20:15.363Z,11.23
2022-11-12T00:22:42.203Z,11.34
2022-11-12T00:25:09.001Z,11.23
2022-11-12T00:27:35.787Z,11.16
2022-11-12T00:30:02.308Z,11.36
2022-11-12T00:32:28.826Z,11.33
2022-11-12T00:34:55.316Z,11.48
2022-11-12T00:37:21.873Z,11.54
2022-11-12T00:39:48.561Z,11.73
2022-11-12T00:42:15.741Z,11.65
2022-11-12T00:44:42.239Z,11.65
2022-11-12T00:47:08.708Z,11.73
2022-11-12T00:49:35.224Z,11.68
2022-11-12T00:52:03.532Z,11.61
2022-11-12T00:54:30.058Z,11.74
2022-11-12T00:56:56.531Z,11.83
2022-11-12T00:59:22.993Z,11.87
2022-11-12T01:01:49.723Z,11.80
2022-11-12T01:04:16.237Z,11.83
2022-11-12T01:06:45.408Z,11.82
2022-11-12T01:09:11.928Z,11.85
2022-11-12T01:11:40.788Z,11.60
2022-11-12T01:14:08.819Z,11.79
2022-11-12T01:16:39.088Z,11.66
2022-11-12T01:19:07.645Z,11.57
2022-11-12T01:21:38.291Z,11.27
2022-11-12T01:24:04.882Z,11.35
2022-11-12T01:26:31.400Z,11.51
2022-11-12T01:28:58.194Z,11.51
2022-11-12T01:31:26.736Z,11.47
2022-11-12T01:33:55.238Z,11.50
2022-11-12T01:36:22.170Z,11.42
2022-11-12T01:38:48.709Z,11.39
2022-11-12T01:41:23.132Z,11.08
2022-11-12T01:44:20.006Z,10.87
2022-11-12T01:47:05.841Z,10.95
2022-11-12T01:49:54.146Z,10.82
2022-11-12T01:52:24.977Z,10.88
2022-11-12T01:54:53.588Z,10.79
2022-11-12T01:58:05.498Z,10.56
2022-11-12T02:00:32.077Z,10.25
2022-11-12T02:03:00.899Z,10.18
2022-11-12T02:05:28.752Z,10.26
2022-11-12T02:07:59.556Z,10.26
2022-11-12T02:10:26.465Z,10.30
2022-11-12T02:12:53.781Z,10.14
2022-11-12T02:15:20.373Z,10.06
2022-11-12T02:17:46.890Z,10.22
2022-11-12T02:20:14.642Z,10.22
2022-11-12T02:22:41.140Z,10.37
2022-11-12T02:25:11.178Z,10.17
2022-11-12T02:27:37.782Z,10.19
2022-11-12T02:30:04.994Z,10.11
2022-11-12T02:32:31.518Z,10.03
2022-11-12T02:34:58.050Z,10.24
2022-11-12T02:37:24.522Z,10.17
2022-11-12T02:39:50.995Z,10.04
2022-11-12T02:42:17.469Z,10.06
2022-11-12T02:44:44.090Z,10.10
2022-11-12T02:47:10.555Z,9.92
2022-11-12T02:49:37.046Z,9.90
2022-11-12T02:52:03.573Z,9.91
2022-11-12T02:54:30.199Z,10.04
2022-11-12T02:56:56.801Z,9.98
2022-11-12T02:59:23.279Z,10.14
2022-11-12T03:01:49.823Z,9.87
2022-11-12T03:04:16.353Z,9.85
2022-11-12T03:06:42.848Z,9.87
2022-11-12T03:09:11.572Z,9.88
2022-11-12T03:11:38.189Z,9.79
2022-11-12T03:14:04.650Z,9.74
2022-11-12T03:16:31.477Z,9.58
2022-11-12T03:18:58.122Z,9.47
2022-11-12T03:21:24.548Z,9.63
2022-11-12T03:23:51.021Z,9.61
2022-11-12T03:26:17.648Z,9.60
2022-11-12T03:28:44.278Z,9.27
2022-11-12T03:31:10.749Z,9.01
2022-11-12T03:33:37.800Z,9.18
2022-11-12T03:36:04.985Z,9.19
2022-11-12T03:38:31.442Z,9.24
2022-11-12T03:40:57.867Z,9.30
2022-11-12T03:43:24.313Z,9.34
2022-11-12T03:45:50.879Z,9.60
2022-11-12T03:48:17.525Z,9.70
2022-11-12T03:50:44.098Z,9.75
2022-11-12T03:53:10.782Z,9.82
2022-11-12T03:55:37.263Z,9.92
2022-11-12T03:58:03.908Z,9.95
2022-11-12T04:00:30.905Z,9.91
2022-11-12T04:02:58.111Z,9.91
2022-11-12T04:05:25.476Z,9.93
2022-11-12T04:07:59.707Z,10.10
2022-11-12T04:10:26.279Z,10.20
2022-11-12T04:13:10.553Z,10.31
2022-11-12T04:15:37.077Z,10.21
2022-11-12T04:18:03.713Z,10.24
2022-11-12T04:20:30.286Z,10.31
2022-11-12T04:22:58.021Z,10.21
2022-11-12T04:25:24.513Z,10.00
2022-11-12T04:27:51.012Z,10.11
2022-11-12T04:30:18.137Z,10.16
2022-11-12T04:32:50.144Z,10.23
2022-11-12T04:35:16.991Z,10.36
2022-11-12T04:37:43.612Z,10.25
2022-11-12T04:40:20.338Z,10.03
2022-11-12T04:42:47.753Z,10.13
2022-11-12T04:45:14.265Z,10.22
2022-11-12T04:47:41.839Z,10.33
2022-11-12T04:50:14.085Z,10.25
2022-11-12T04:52:40.624Z,10.42
2022-11-12T04:55:08.059Z,10.48
2022-11-12T04:57:34.761Z,10.73
2022-11-12T05:00:01.684Z,10.74
2022-11-12T05:02:28.184Z,10.66
2022-11-12T05:04:54.649Z,10.33
2022-11-12T05:07:21.164Z,10.53
2022-11-12T05:09:47.746Z,10.66
2022-11-12T05:12:14.669Z,10.80
2022-11-12T05:14:41.121Z,10.94
2022-11-12T05:17:07.612Z,11.13
2022-11-12T05:19:34.155Z,11.13
2022-11-12T05:22:00.983Z,11.13
2022-11-12T05:24:40.898Z,11.24
2022-11-12T05:27:16.430Z,11.29
2022-11-12T05:29:43.143Z,11.30
2022-11-12T05:32:13.259Z,11.17
2022-11-12T05:34:39.825Z,11.21
2022-11-12T05:37:08.106Z,11.11
2022-11-12T05:39:34.735Z,11.20
2022-11-12T05:42:16.584Z,11.30
2022-11-12T05:44:43.101Z,11.37
2022-11-12T05:47:09.616Z,11.43
2022-11-12T05:49:36.097Z,11.52
2022-11-12T05:52:02.576Z,11.52
2022-11-12T05:54:31.401Z,11.49
2022-11-12T05:56:58.327Z,11.31
2022-11-12T05:59:24.778Z,11.40
2022-11-12T06:01:51.243Z,11.43
2022-11-12T06:04:18.142Z,11.53
2022-11-12T06:06:45.071Z,11.55
2022-11-12T06:09:11.997Z,11.59
2022-11-12T06:11:38.988Z,11.67
2022-11-12T06:14:05.777Z,11.49
2022-11-12T06:16:32.457Z,11.65
2022-11-12T06:18:59.083Z,11.60
2022-11-12T06:21:25.595Z,11.68
2022-11-12T06:23:54.854Z,11.61
2022-11-12T06:26:21.612Z,11.67
2022-11-12T06:28:48.846Z,11.78
2022-11-12T06:31:15.986Z,11.58
2022-11-12T06:33:43.053Z,11.53
2022-11-12T06:36:11.703Z,11.35
2022-11-12T06:38:39.120Z,11.49
2022-11-12T06:41:06.280Z,11.62
2022-11-12T06:43:33.933Z,11.60
2022-11-12T06:46:04.797Z,11.55
2022-11-12T06:48:31.445Z,11.37
2022-11-12T06:50:58.500Z,11.28
2022-11-12T06:53:25.607Z,11.16
2022-11-12T06:55:52.322Z,11.33
2022-11-12T06:58:18.955Z,11.23
2022-11-12T07:00:45.645Z,11.41
2022-11-12T07:03:13.494Z,11.30
2022-11-12T07:05:40.123Z,11.36
2022-11-12T07:08:06.649Z,11.48
2022-11-12T07:10:33.366Z,11.54
2022-11-12T07:12:59.851Z,11.61
2022-11-12T07:15:26.352Z,11.62
2022-11-12T07:17:52.867Z,11.65
2022-11-12T07:20:19.368Z,11.78
2022-11-12T07:22:45.819Z,11.77
2022-11-12T07:25:12.433Z,11.59
2022-11-12T07:27:38.921Z,11.59
2022-11-12T07:30:05.956Z,11.63
2022-11-12T07:32:32.569Z,11.46
2022-11-12T07:34:59.027Z,11.60
2022-11-12T07:37:25.539Z,11.50
2022-11-12T07:39:52.012Z,11.66
2022-11-12T07:42:18.486Z,11.59
2022-11-12T07:44:44.930Z,11.58
2022-11-12T07:47:11.663Z,11.46
2022-11-12T07:49:38.206Z,11.65
2022-11-12T07:52:04.950Z,11.82
2022-11-12T07:54:31.468Z,11.89
2022-11-12T07:56:57.960Z,11.76
2022-11-12T07:59:24.506Z,11.79
2022-11-12T08:01:51.210Z,11.82
2022-11-12T08:04:17.728Z,11.76
2022-11-12T08:06:45.995Z,11.84
2022-11-12T08:09:12.582Z,12.07
2022-11-12T08:11:39.101Z,12.14
2022-11-12T08:14:05.757Z,11.91
2022-11-12T08:16:32.562Z,12.03
2022-11-12T08:18:59.168Z,12.26
2022-11-12T08:21:25.657Z,12.31
2022-11-12T08:23:52.172Z,12.36
2022-11-12T08:26:19.692Z,12.38
2022-11-12T08:28:46.794Z,12.44
2022-11-12T08:31:16.017Z,12.18
2022-11-12T08:33:43.114Z,12.35
2022-11-12T08:36:12.222Z,12.28
2022-11-12T08:38:38.758Z,12.20
2022-11-12T08:41:08.081Z,12.37
2022-11-12T08:43:35.106Z,12.42
2022-11-12T08:46:02.628Z,12.45
2022-11-12T08:48:30.117Z,12.56
2022-11-12T08:50:57.399Z,12.65
2022-11-12T08:53:24.784Z,12.84
2022-11-12T08:55:55.732Z,12.65
2022-11-12T08:58:23.275Z,12.64
2022-11-12T09:00:50.611Z,12.84
2022-11-12T09:03:19.281Z,13.04
2022-11-12T09:05:47.352Z,13.15
2022-11-12T09:08:16.587Z,13.12
2022-11-12T09:10:43.142Z,13.45
2022-11-12T09:13:10.005Z,13.16
2022-11-12T09:15:38.423Z,13.42
2022-11-12T09:18:07.944Z,13.48
2022-11-12T09:20:34.465Z,13.66
2022-11-12T09:23:02.735Z,13.78
2022-11-12T09:25:29.283Z,13.85
2022-11-12T09:27:56.453Z,13.88
2022-11-12T09:30:23.159Z,13.95
2022-11-12T09:32:49.824Z,13.89
2022-11-12T09:35:16.311Z,13.85
2022-11-12T09:37:42.778Z,13.81
2022-11-12T09:40:16.182Z,13.73
2022-11-12T09:42:51.618Z,13.79
2022-11-12T09:45:23.151Z,13.70
2022-11-12T09:47:54.136Z,13.85
2022-11-12T09:50:29.775Z,13.67
2022-11-12T09:53:02.736Z,13.69
2022-11-12T09:55:41.242Z,13.88
2022-11-12T09:58:18.561Z,13.68
2022-11-12T10:00:55.022Z,13.63
2022-11-12T10:03:40.185Z,13.72
2022-11-12T10:06:19.397Z,13.57
2022-11-12T10:09:03.203Z,13.59
2022-11-12T10:11:45.141Z,13.87
2022-11-12T10:14:22.739Z,13.82
2022-11-12T10:17:06.914Z,13.72
2022-11-12T10:19:40.834Z,13.79
2022-11-12T10:22:26.032Z,13.95
2022-11-12T10:24:53.750Z,14.10
2022-11-12T10:27:27.242Z,14.24
2022-11-12T10:30:00.992Z,14.12
2022-11-12T10:32:28.554Z,14.31
2022-11-12T10:34:58.719Z,14.65
2022-11-12T10:37:39.944Z,14.66
2022-11-12T10:40:30.284Z,14.73
2022-11-12T10:42:57.960Z,14.78
2022-11-12T10:45:24.790Z,14.82
2022-11-12T10:47:51.344Z,14.74
2022-11-12T10:50:27.282Z,15.07
2022-11-12T10:52:59.556Z,14.92
2022-11-12T10:55:30.327Z,14.81
2022-11-12T10:58:11.802Z,14.82
2022-11-12T11:00:52.394Z,14.87
2022-11-12T11:03:24.791Z,14.85
2022-11-12T11:06:14.100Z,15.03
2022-11-12T11:08:48.704Z,14.87
2022-11-12T11:11:25.612Z,14.99
2022-11-12T11:13:57.421Z,15.13
2022-11-12T11:16:28.794Z,15.30
2022-11-12T11:19:00.003Z,15.60
2022-11-12T11:21:42.646Z,15.60
2022-11-12T11:24:21.860Z,15.53
2022-11-12T11:27:00.458Z,15.79
2022-11-12T11:29:38.648Z,15.65
2022-11-12T11:32:26.173Z,15.40
2022-11-12T11:34:55.613Z,15.33
2022-11-12T11:37:29.885Z,15.17
2022-11-12T11:40:07.767Z,15.32
2022-11-12T11:42:40.193Z,15.08
2022-11-12T11:45:15.690Z,14.84
2022-11-12T11:48:00.718Z,14.38
2022-11-12T11:50:29.503Z,14.45
2022-11-12T11:53:20.688Z,14.50
2022-11-12T11:55:54.110Z,14.54
2022-11-12T11:58:29.707Z,14.67
2022-11-12T12:01:37.922Z,14.61
2022-11-12T12:04:25.923Z,14.57
2022-11-12T12:07:10.636Z,14.61
2022-11-12T12:09:55.969Z,14.78
2022-11-12T12:12:41.325Z,14.63
2022-11-12T12:15:07.756Z,14.72
2022-11-12T12:17:50.100Z,14.97
2022-11-12T12:20:19.651Z,14.98
2022-11-12T12:22:50.343Z,15.16
2022-11-12T12:25:22.023Z,15.38
2022-11-12T12:28:00.162Z,15.51
2022-11-12T12:30:52.101Z,15.33
2022-11-12T12:33:43.388Z,15.45
2022-11-12T12:36:13.098Z,15.49
2022-11-12T12:39:04.465Z,15.44
2022-11-12T12:41:43.221Z,15.44
2022-11-12T12:44:10.436Z,15.25
2022-11-12T12:46:45.975Z,15.18
2022-11-12T12:49:17.647Z,15.24
2022-11-12T12:51:44.228Z,14.92
2022-11-12T12:54:35.606Z,14.93
2022-11-12T12:57:05.346Z,15.03
2022-11-12T12:59:31.832Z,14.93
2022-11-12T13:02:00.140Z,14.95
2022-11-12T13:05:05.890Z,15.07
2022-11-12T13:08:01.368Z,15.05
2022-11-12T13:10:37.019Z,14.61
2022-11-12T13:13:06.396Z,14.85
2022-11-12T13:15:44.726Z,14.90
2022-11-12T13:18:15.974Z,14.99
2022-11-12T13:21:10.460Z,14.88
2022-11-12T13:23:50.209Z,14.67
2022-11-12T13:26:44.817Z,14.58
2022-11-12T13:29:31.563Z,14.44
2022-11-12T13:32:25.740Z,14.30
2022-11-12T13:35:11.551Z,14.27
2022-11-12T13:37:49.438Z,14.26
2022-11-12T13:40:37.577Z,14.45
2022-11-12T13:43:15.974Z,14.46
2022-11-12T13:45:52.415Z,14.34
2022-11-12T13:48:27.926Z,14.30
2022-11-12T13:51:00.032Z,14.31
2022-11-12T13:53:28.311Z,14.29
2022-11-12T13:55:55.086Z,14.26
2022-11-12T13:58:31.649Z,14.26
2022-11-12T14:01:03.124Z,14.18
2022-11-12T14:03:43.563Z,14.15
2022-11-12T14:06:37.793Z,14.05
2022-11-12T14:09:23.454Z,14.00
2022-11-12T14:12:01.975Z,14.05
2022-11-12T14:15:06.136Z,14.04
2022-11-12T14:17:57.279Z,13.97
2022-11-12T14:20:34.943Z,13.92
2022-11-12T14:23:24.584Z,13.86
2022-11-12T14:25:56.397Z,13.78
2022-11-12T14:28:35.741Z,13.90
2022-11-12T14:31:05.988Z,13.95
2022-11-12T14:33:32.803Z,13.90
2022-11-12T14:36:05.519Z,13.89
2022-11-12T14:38:34.280Z,13.92
2022-11-12T14:41:09.175Z,13.67
2022-11-12T14:43:43.558Z,13.71
2022-11-12T14:46:38.699Z,13.78
2022-11-12T14:49:18.676Z,13.84
2022-11-12T14:52:16.342Z,13.68
2022-11-12T14:54:54.315Z,13.56
2022-11-12T14:57:30.110Z,13.19
2022-11-12T14:59:57.177Z,13.14
2022-11-12T15:02:49.922Z,12.94
2022-11-12T15:05:21.134Z,12.93
2022-11-12T15:07:53.291Z,13.08
2022-11-12T15:10:40.891Z,13.06
2022-11-12T15:13:13.845Z,13.00
2022-11-12T15:15:50.012Z,12.90
2022-11-12T15:18:21.863Z,12.82
2022-11-12T15:21:15.639Z,12.92
2022-11-12T15:23:50.114Z,12.93
2022-11-12T15:26:53.059Z,12.61
2022-11-12T15:29:35.410Z,12.74
2022-11-12T15:32:13.794Z,12.52
2022-11-12T15:34:40.463Z,12.58
2022-11-12T15:37:19.469Z,12.63
2022-11-12T15:39:49.171Z,12.51
2022-11-12T15:42:31.407Z,12.42
2022-11-12T15:45:00.735Z,12.44
2022-11-12T15:47:27.821Z,12.25
2022-11-12T15:49:56.532Z,12.34
2022-11-12T15:52:23.183Z,12.21
2022-11-12T15:54:49.766Z,12.21
2022-11-12T15:57:20.458Z,12.25
2022-11-12T15:59:54.873Z,12.15
2022-11-12T16:02:21.376Z,12.18
2022-11-12T16:04:49.328Z,12.17
2022-11-12T16:07:16.164Z,12.16
2022-11-12T16:09:42.681Z,12.21
2022-11-12T16:12:13.034Z,12.17
2022-11-12T16:14:40.257Z,12.16
2022-11-12T16:17:11.559Z,12.17
2022-11-12T16:19:38.123Z,12.20
2022-11-12T16:22:07.111Z,12.14
2022-11-12T16:24:33.591Z,12.13
2022-11-12T16:27:00.083Z,12.08
2022-11-12T16:29:26.577Z,12.00
2022-11-12T16:31:53.168Z,11.97
2022-11-12T16:34:19.666Z,11.82
2022-11-12T16:36:49.250Z,11.72
2022-11-12T16:39:15.790Z,11.57
2022-11-12T16:41:44.630Z,11.69
2022-11-12T16:44:12.316Z,11.72
2022-11-12T16:46:42.461Z,11.68
2022-11-12T16:49:15.161Z,11.73
2022-11-12T16:51:41.645Z,11.75
2022-11-12T16:54:09.336Z,11.66
2022-11-12T16:56:36.573Z,11.65
2022-11-12T16:59:03.506Z,11.68
2022-11-12T17:01:32.091Z,11.51
2022-11-12T17:03:59.226Z,11.44
2022-11-12T17:06:35.260Z,11.28
2022-11-12T17:09:23.831Z,11.40
2022-11-12T17:11:50.306Z,11.39
2022-11-12T17:14:16.756Z,11.35
2022-11-12T17:16:43.224Z,11.28
2022-11-12T17:19:09.749Z,11.30
2022-11-12T17:21:36.431Z,11.35
2022-11-12T17:24:05.700Z,11.29
2022-11-12T17:26:32.201Z,11.42
2022-11-12T17:29:07.664Z,11.21
2022-11-12T17:31:41.503Z,10.94
2022-11-12T17:34:08.010Z,11.00
2022-11-12T17:36:36.987Z,11.03
2022-11-12T17:39:10.316Z,11.19
2022-11-12T17:41:40.400Z,11.03
2022-11-12T17:44:07.039Z,11.03
2022-11-12T17:46:33.552Z,11.06
2022-11-12T17:49:00.083Z,11.11
2022-11-12T17:51:27.816Z,10.95
2022-11-12T17:53:54.470Z,10.92
2022-11-12T17:56:22.850Z,10.94
2022-11-12T17:58:50.162Z,10.84
2022-11-12T18:01:24.822Z,10.90
2022-11-12T18:03:52.612Z,10.91
2022-11-12T18:06:21.653Z,10.89
2022-11-12T18:08:52.866Z,10.70
2022-11-12T18:11:19.523Z,10.74
2022-11-12T18:13:46.130Z,10.56
2022-11-12T18:16:16.615Z,10.49
2022-11-12T18:18:44.395Z,10.52
2022-11-12T18:21:11.169Z,10.42
2022-11-12T18:23:39.389Z,10.45
2022-11-12T18:26:09.252Z,10.43
2022-11-12T18:28:35.826Z,10.42
2022-11-12T18:31:04.203Z,10.44
2022-11-12T18:33:31.317Z,10.54
2022-11-12T18:36:02.531Z,10.49
2022-11-12T18:38:32.507Z,10.53
2022-11-12T18:41:02.248Z,10.47
2022-11-12T18:43:29.668Z,10.49
2022-11-12T18:45:57.315Z,10.58
2022-11-12T18:48:29.919Z,10.74
2022-11-12T18:51:00.839Z,10.95
2022-11-12T18:53:28.820Z,11.13
2022-11-12T18:55:58.765Z,11.17
2022-11-12T18:58:30.522Z,11.20
2022-11-12T19:01:05.266Z,11.08
2022-11-12T19:03:33.659Z,11.13
2022-11-12T19:06:01.506Z,11.23
2022-11-12T19:08:28.392Z,11.29
2022-11-12T19:11:03.255Z,11.38
2022-11-12T19:13:30.335Z,11.50
2022-11-12T19:16:03.970Z,11.38
2022-11-12T19:18:30.916Z,11.38
2022-11-12T19:21:03.742Z,11.25
2022-11-12T19:23:31.019Z,11.22
2022-11-12T19:26:00.394Z,11.14
2022-11-12T19:28:27.659Z,11.04
2022-11-12T19:30:54.419Z,10.88
2022-11-12T19:33:20.899Z,10.86
2022-11-12T19:35:47.425Z,11.00
2022-11-12T19:38:14.715Z,10.80
2022-11-12T19:40:41.972Z,10.85
2022-11-12T19:43:08.554Z,11.00
2022-11-12T19:45:35.037Z,10.86
2022-11-12T19:48:01.513Z,10.79
2022-11-12T19:50:28.332Z,10.55
2022-11-12T19:52:54.933Z,10.58
2022-11-12T19:55:21.416Z,10.73
2022-11-12T19:57:51.137Z,10.60
2022-11-12T20:00:17.768Z,10.60
2022-11-12T20:02:44.262Z,10.19
2022-11-12T20:05:14.908Z,10.18
2022-11-12T20:07:41.558Z,10.08
2022-11-12T20:10:08.447Z,10.06
2022-11-12T20:12:34.907Z,9.86
2022-11-12T20:15:04.440Z,9.93
2022-11-12T20:17:32.574Z,10.23
2022-11-12T20:19:59.291Z,10.49
2022-11-12T20:22:31.661Z,10.61
2022-11-12T20:24:58.688Z,10.58
2022-11-12T20:27:25.550Z,10.32
2022-11-12T20:29:52.034Z,10.20
2022-11-12T20:32:18.585Z,10.08
2022-11-12T20:34:45.161Z,10.19
2022-11-12T20:37:11.744Z,9.82
2022-11-12T20:39:38.196Z,9.89
2022-11-12T20:42:04.675Z,10.10
2022-11-12T20:44:31.200Z,10.21
2022-11-12T20:46:57.654Z,10.20
2022-11-12T20:49:24.180Z,10.30
2022-11-12T20:51:50.660Z,10.27
2022-11-12T20:54:17.377Z,10.40
2022-11-12T20:56:44.995Z,10.60
2022-11-12T20:59:11.607Z,10.66
2022-11-12T21:01:38.504Z,10.50
2022-11-12T21:04:05.235Z,10.52
2022-11-12T21:06:31.817Z,10.48
2022-11-12T21:08:59.160Z,10.39
2022-11-12T21:11:25.959Z,10.52
2022-11-12T21:13:52.460Z,10.66
2022-11-12T21:16:21.375Z,10.81
2022-11-12T21:18:47.839Z,10.98
2022-11-12T21:21:17.146Z,11.10
2022-11-12T21:23:46.737Z,11.16
2022-11-12T21:26:15.304Z,11.24
2022-11-12T21:28:43.342Z,11.25
2022-11-12T21:31:18.038Z,11.15
2022-11-12T21:33:44.578Z,11.13
2022-11-12T21:36:16.159Z,11.19
2022-11-12T21:38:43.411Z,11.27
2022-11-12T21:41:12.260Z,11.32
2022-11-12T21:43:40.289Z,11.33
2022-11-12T21:46:08.191Z,11.37
2022-11-12T21:48:35.510Z,11.28
2022-11-12T21:51:03.714Z,10.97
2022-11-12T21:53:30.512Z,10.42
2022-11-12T21:56:26.563Z,9.96
2022-11-12T21:58:55.116Z,9.85
2022-11-12T22:01:23.239Z,9.77
2022-11-12T22:03:50.291Z,9.81
2022-11-12T22:06:17.726Z,9.94
2022-11-12T22:08:44.353Z,9.91
2022-11-12T22:11:15.694Z,9.83
2022-11-12T22:13:42.495Z,9.65
2022-11-12T22:16:11.887Z,9.58
2022-11-12T22:18:39.448Z,9.45
2022-11-12T22:21:08.285Z,9.34
2022-11-12T22:23:37.564Z,9.10
2022-11-12T22:26:05.894Z,8.92
2022-11-12T22:28:32.913Z,8.58
2022-11-12T22:31:13.756Z,8.40
2022-11-12T22:33:40.294Z,8.24
2022-11-12T22:36:15.342Z,8.23
2022-11-12T22:38:46.675Z,8.37
2022-11-12T22:41:18.843Z,8.28
2022-11-12T22:43:49.123Z,8.43
2022-11-12T22:46:16.749Z,8.55
2022-11-12T22:48:43.635Z,8.60
2022-11-12T22:51:14.140Z,8.66
2022-11-12T22:53:40.979Z,8.89
2022-11-12T22:56:10.164Z,9.00
2022-11-12T22:58:40.621Z,9.18
2022-11-12T23:01:09.645Z,9.30
2022-11-12T23:03:36.573Z,9.17
2022-11-12T23:06:05.827Z,9.09
2022-11-12T23:08:35.954Z,9.13
2022-11-12T23:11:07.939Z,9.10
2022-11-12T23:13:35.054Z,8.97
2022-11-12T23:16:01.985Z,9.02
2022-11-12T23:18:29.174Z,9.22
2022-11-12T23:21:04.596Z,9.27
2022-11-12T23:23:31.139Z,9.16
2022-11-12T23:26:09.599Z,9.14
2022-11-12T23:28:36.591Z,9.13
2022-11-12T23:31:04.753Z,9.07
2022-11-12T23:33:31.380Z,9.15
2022-11-12T23:36:08.849Z,9.12
2022-11-12T23:38:35.444Z,9.28
2022-11-12T23:41:03.210Z,9.39
2022-11-12T23:43:29.777Z,9.27
2022-11-12T23:45:56.763Z,9.25
2022-11-12T23:48:23.318Z,9.24
2022-11-12T23:50:50.485Z,9.14
2022-11-12T23:53:20.385Z,9.27
2022-11-12T23:55:46.877Z,9.32
2022-11-12T23:58:13.374Z,9.42
